Clayton, LA (71326)

4:55 AM CDT on April 02, 2015 (GMT -0500)
Downtown, "Cherokee" | | Change Station
CLOSE
Current Station
Personal Weather Station
Location: Natchez, MS
Elevation: 236 ft
Nearby Weather Stations
Active Advisory: Flood Warning

Elev 236 ft 31.56 °N, 91.40 °W | Updated 17 seconds ago

Overcast
Overcast
69.6 °F
Feels Like 69.6 °F
N
4.3
Wind Variable Wind from SSW
Gusts 7.4 mph

Today
High -- | Low -- °F
--% Chance of Precip.
Yesterday
High -- | Low -- °F
Precip. -- in
6:53 AM 7:26 PM
Waxing Gibbous, 96% visible
Pressure 30.02 in
Visibility 10.0 miles
Clouds Few 2000 ft
Scattered Clouds 11000 ft
Dew Point 66 °F
Humidity 89%
Rainfall 0.00 in
Snow Depth Not available.
UV 0.0 out of 12
Pollen 10.50 out of 12
Air Quality Not available.
Flu Activity Not available.
METAR KHEZ 020935Z AUTO 17005KT 10SM FEW020 SCT110 19/17 A3002 RMK AO1

More Conditions Fewer Conditions

Pressure 30.02 in
Visibility 10.0 miles
Clouds Few 2000 ft
Scattered Clouds 11000 ft
Dew Point 66 °F
Humidity 89%
Rainfall 0.00 in
Snow Depth Not available.
UV 0.0 out of 12
Pollen 10.50 out of 12
Air Quality Not available.
Flu Activity Not available.
METAR KHEZ 020935Z AUTO 17005KT 10SM FEW020 SCT110 19/17 A3002 RMK AO1

More Conditions Fewer Conditions

10-Day Weather Forecast

Almanac

Astronomy

Apr. 02, 2015 Rise Set
Actual Time
Civil Twilight
Nautical Twilight
Astronomical Twilight
Moon
Length of Visible Light
Length of Day
Tomorrow will be .
, % of the Moon is Illuminated

Today's Extremes

State Highs State Lows

Community

WunderPhotos

Upload Photos

1,810,216 photos uploaded!

WunderBlogs® & News

Nearby

Air Quality

  Air Quality AQ Index Pollutant
Not available.

Snow Depth

Station Depth Elevation

Earthquake Activity

City Distance Mag. Time & Date
Minimum magnitude displayed is 2.5.

Coastal Water Temperatures

Place Temperature

Stations

Nearby Weather Stations

Station Location Temp. Windchill Dew Point Humidity Wind Precip. Elev Updated Type
                   
Flood Warning
Statement as of 8:24 PM CDT on April 01, 2015


The Flood Warning continues for
the Mississippi River at Natchez
* until further notice.
* At 8:00 PM Wednesday the stage was 50.0 feet.
* Minor flooding is occurring and minor flooding is forecast.
* Flood stage is 48.0 feet.
* Forecast... the river is cresting and will remain steady for
the next 24 hours.


              Flood observed forecast 7 am crest
location stg stg day time Thu Fri Sat crest time date

Lower Mississippi River
Natchez 48 50.0 Wed 08 PM 50.0 50.0 49.9 cresting




Lat... Lon 3101 9170 3130 9167 3193 9129 3187 9114
      3130 9147 3100 9154